Wetterdaten: Woche 26.05.03 - 01.06.03 (KW22)
Datum Zeit Temperatur Luftfeuchte Luftdruck Regenmenge Wind Richtung Taupunkt Windchill
26.05.2003 00:00 10.8 C 100 % 1018.4 hPa 0.0 l/m 1.9 km/h (1 Bft) SO 10.8 C 10.8 C
26.05.2003 01:00 10.5 C 100 % 1018.4 hPa 0.0 l/m 1.8 km/h (1 Bft) O 10.5 C 10.5 C
26.05.2003 02:00 10.7 C 100 % 1018.4 hPa 0.0 l/m 2.1 km/h (1 Bft) O-SO 10.7 C 10.7 C
26.05.2003 03:00 10.7 C 100 % 1018.4 hPa 0.0 l/m 0.2 km/h (0 Bft) O-SO 10.7 C 10.7 C
26.05.2003 04:00 10.8 C 100 % 1018.4 hPa 0.0 l/m 0.0 km/h (0 Bft) N 10.8 C 10.8 C
26.05.2003 05:00 10.8 C 100 % 1018.4 hPa 0.0 l/m 0.0 km/h (0 Bft) N 10.8 C 10.8 C
26.05.2003 06:00 11.0 C 100 % 1018.6 hPa 0.0 l/m 0.0 km/h (0 Bft) N 11.0 C 11.0 C
26.05.2003 07:00 10.8 C 100 % 1019.4 hPa 0.0 l/m 0.0 km/h (0 Bft) N 10.8 C 10.8 C
26.05.2003 08:00 11.3 C 99 % 1019.4 hPa 0.0 l/m 0.4 km/h (0 Bft) O-SO 11.3 C 11.3 C
26.05.2003 09:00 12.4 C 92 % 1019.4 hPa 0.0 l/m 0.3 km/h (0 Bft) N-NO 11.1 C 12.4 C
26.05.2003 10:00 13.4 C 84 % 1019.4 hPa 0.0 l/m 4.3 km/h (1 Bft) O 10.7 C 13.4 C
26.05.2003 11:00 14.2 C 78 % 1019.4 hPa 0.0 l/m 5.7 km/h (1 Bft) O-SO 10.5 C 14.2 C
26.05.2003 12:00 14.6 C 76 % 1019.4 hPa 0.0 l/m 4.3 km/h (1 Bft) O-NO 10.5 C 14.6 C
26.05.2003 13:00 14.2 C 78 % 1019.4 hPa 0.0 l/m 1.0 km/h (0 Bft) N-NO 10.4 C 14.2 C
26.05.2003 14:00 14.3 C 78 % 1019.1 hPa 0.0 l/m 0.2 km/h (0 Bft) N 10.5 C 14.3 C
26.05.2003 15:00 14.4 C 79 % 1019.2 hPa 0.0 l/m 0.3 km/h (0 Bft) N 10.9 C 14.4 C
26.05.2003 16:00 14.4 C 82 % 1019.4 hPa 0.0 l/m 0.4 km/h (0 Bft) O-NO 11.4 C 14.4 C
26.05.2003 17:00 14.2 C 88 % 1019.4 hPa 0.0 l/m 0.5 km/h (0 Bft) O-NO 12.1 C 14.2 C
26.05.2003 18:00 14.0 C 89 % 1019.4 hPa 0.0 l/m 0.2 km/h (0 Bft) N 12.1 C 14.0 C
26.05.2003 19:00 13.6 C 94 % 1019.9 hPa 0.3 l/m 0.1 km/h (0 Bft) N 12.6 C 13.6 C
26.05.2003 20:00 13.4 C 98 % 1020.5 hPa 0.3 l/m 0.0 km/h (0 Bft) N 13.1 C 13.4 C
26.05.2003 21:00 13.2 C 100 % 1020.9 hPa 0.0 l/m 0.0 km/h (0 Bft) N 13.2 C 13.2 C
26.05.2003 22:00 13.1 C 100 % 1021.5 hPa 0.0 l/m 0.0 km/h (0 Bft) N 13.1 C 13.1 C
26.05.2003 23:00 13.0 C 100 % 1021.5 hPa 0.0 l/m 0.0 km/h (0 Bft) N 13.0 C 13.0 C
27.05.2003 00:00 12.9 C 100 % 1020.8 hPa 0.0 l/m 0.0 km/h (0 Bft) N 12.9 C 12.9 C
27.05.2003 01:00 12.9 C 100 % 1020.5 hPa 0.0 l/m 0.0 km/h (0 Bft) N 12.9 C 12.9 C
27.05.2003 02:00 12.9 C 100 % 1020.5 hPa 0.0 l/m 0.1 km/h (0 Bft) N 12.9 C 12.9 C
27.05.2003 03:00 13.0 C 100 % 1020.4 hPa 0.0 l/m 0.0 km/h (0 Bft) N 13.0 C 13.0 C
27.05.2003 04:00 13.0 C 100 % 1019.4 hPa 0.0 l/m 0.0 km/h (0 Bft) N 13.0 C 13.0 C
27.05.2003 05:00 13.0 C 100 % 1019.6 hPa 0.0 l/m 0.0 km/h (0 Bft) N 13.0 C 13.0 C
27.05.2003 06:00 13.1 C 100 % 1020.5 hPa 0.6 l/m 0.0 km/h (0 Bft) N 13.1 C 13.1 C
27.05.2003 07:00 13.2 C 100 % 1020.8 hPa 0.6 l/m 0.0 km/h (0 Bft) N 13.2 C 13.2 C
27.05.2003 08:00 13.3 C 100 % 1021.5 hPa 0.3 l/m 0.0 km/h (0 Bft) N 13.3 C 13.3 C
27.05.2003 09:00 13.7 C 100 % 1021.5 hPa 0.0 l/m 0.0 km/h (0 Bft) N 13.7 C 13.7 C
27.05.2003 10:00 14.1 C 100 % 1021.5 hPa 0.0 l/m 0.0 km/h (0 Bft) N 14.1 C 14.1 C
27.05.2003 11:00 15.5 C 97 % 1021.3 hPa 0.0 l/m 0.3 km/h (0 Bft) W-NW 15.0 C 15.5 C
27.05.2003 12:00 17.0 C 87 % 1020.5 hPa 0.0 l/m 0.7 km/h (0 Bft) O 14.8 C 17.0 C
27.05.2003 13:00 17.0 C 85 % 1020.5 hPa 0.0 l/m 0.3 km/h (0 Bft) N-NW 14.5 C 17.0 C
27.05.2003 14:00 16.8 C 91 % 1020.5 hPa 0.0 l/m 0.2 km/h (0 Bft) O-SO 15.3 C 16.8 C
27.05.2003 15:00 17.0 C 91 % 1020.5 hPa 0.0 l/m 0.1 km/h (0 Bft) N 15.4 C 17.0 C
27.05.2003 16:00 17.4 C 86 % 1020.5 hPa 0.0 l/m 1.7 km/h (1 Bft) NW 15.0 C 17.4 C
27.05.2003 17:00 17.5 C 86 % 1020.1 hPa 0.0 l/m 0.3 km/h (0 Bft) N 15.0 C 17.5 C
27.05.2003 18:00 17.2 C 86 % 1019.8 hPa 0.0 l/m 0.2 km/h (0 Bft) N 14.8 C 17.2 C
27.05.2003 19:00 17.1 C 87 % 1020.5 hPa 0.0 l/m 0.0 km/h (0 Bft) N 15.0 C 17.1 C
27.05.2003 20:00 16.7 C 90 % 1020.5 hPa 0.0 l/m 0.0 km/h (0 Bft) N 15.1 C 16.7 C
27.05.2003 21:00 16.4 C 91 % 1020.5 hPa 0.0 l/m 0.0 km/h (0 Bft) N 15.0 C 16.4 C
27.05.2003 22:00 16.2 C 92 % 1020.5 hPa 0.0 l/m 0.0 km/h (0 Bft) N 15.0 C 16.2 C
27.05.2003 23:00 16.0 C 94 % 1020.5 hPa 0.0 l/m 0.0 km/h (0 Bft) N 15.1 C 16.0 C
28.05.2003 00:00 15.7 C 98 % 1020.5 hPa 0.0 l/m 0.0 km/h (0 Bft) N 15.3 C 15.7 C
28.05.2003 01:00 15.4 C 99 % 1020.5 hPa 0.0 l/m 0.0 km/h (0 Bft) N 15.3 C 15.4 C
28.05.2003 02:00 15.3 C 100 % 1020.5 hPa 0.0 l/m 0.0 km/h (0 Bft) N 15.3 C 15.3 C
28.05.2003 03:00 15.2 C 99 % 1020.3 hPa 0.0 l/m 0.0 km/h (0 Bft) N 15.1 C 15.2 C
28.05.2003 04:00 14.7 C 99 % 1019.4 hPa 0.0 l/m 0.1 km/h (0 Bft) N 14.5 C 14.7 C
28.05.2003 05:00 14.4 C 100 % 1019.4 hPa 0.0 l/m 0.0 km/h (0 Bft) N 14.4 C 14.4 C
28.05.2003 06:00 14.5 C 100 % 1019.4 hPa 0.3 l/m 0.1 km/h (0 Bft) N 14.5 C 14.5 C
28.05.2003 07:00 14.9 C 100 % 1019.4 hPa 0.0 l/m 0.0 km/h (0 Bft) N 14.8 C 14.9 C
28.05.2003 08:00 15.6 C 96 % 1019.4 hPa 0.0 l/m 0.4 km/h (0 Bft) SO 14.9 C 15.6 C
28.05.2003 09:00 16.2 C 88 % 1019.4 hPa 0.0 l/m 0.3 km/h (0 Bft) O 14.2 C 16.2 C
28.05.2003 10:00 17.4 C 82 % 1019.4 hPa 0.0 l/m 3.7 km/h (1 Bft) O-SO 14.3 C 17.4 C
28.05.2003 11:00 18.6 C 76 % 1019.4 hPa 0.0 l/m 6.3 km/h (2 Bft) O-SO 14.4 C 18.6 C
28.05.2003 12:00 19.3 C 75 % 1019.4 hPa 0.0 l/m 5.2 km/h (1 Bft) O-SO 14.7 C 19.3 C
28.05.2003 13:00 20.7 C 71 % 1018.4 hPa 0.0 l/m 6.0 km/h (2 Bft) O-SO 15.2 C 20.7 C
28.05.2003 14:00 22.6 C 62 % 1017.9 hPa 0.0 l/m 2.3 km/h (1 Bft) N 14.9 C 22.6 C
28.05.2003 15:00 22.4 C 61 % 1017.3 hPa 0.0 l/m 15.5 km/h (3 Bft) O-SO 14.5 C 22.4 C
28.05.2003 16:00 22.0 C 61 % 1017.3 hPa 0.0 l/m 19.4 km/h (3 Bft) O-SO 14.1 C 22.0 C
28.05.2003 17:00 21.0 C 63 % 1017.3 hPa 0.0 l/m 15.9 km/h (3 Bft) O-SO 13.7 C 21.0 C
28.05.2003 18:00 20.2 C 68 % 1017.0 hPa 0.0 l/m 0.6 km/h (0 Bft) O-SO 14.0 C 20.2 C
28.05.2003 19:00 18.8 C 81 % 1017.2 hPa 0.0 l/m 1.3 km/h (1 Bft) W-NW 15.4 C 18.8 C
28.05.2003 20:00 18.2 C 87 % 1017.3 hPa 0.0 l/m 0.1 km/h (0 Bft) N 16.0 C 18.2 C
28.05.2003 21:00 17.9 C 87 % 1017.3 hPa 0.0 l/m 0.0 km/h (0 Bft) N 15.8 C 17.9 C
28.05.2003 22:00 17.4 C 90 % 1017.3 hPa 0.0 l/m 0.0 km/h (0 Bft) N 15.8 C 17.4 C
28.05.2003 23:00 17.3 C 89 % 1017.3 hPa 0.0 l/m 2.7 km/h (1 Bft) NO 15.5 C 17.3 C
29.05.2003 00:00 16.4 C 92 % 1017.3 hPa 0.3 l/m 0.6 km/h (0 Bft) N-NO 15.2 C 16.4 C
29.05.2003 01:00 15.2 C 100 % 1016.6 hPa 0.0 l/m 2.0 km/h (1 Bft) O-SO 15.1 C 15.2 C
29.05.2003 02:00 14.2 C 100 % 1016.3 hPa 0.0 l/m 1.9 km/h (1 Bft) O-SO 14.2 C 14.2 C
29.05.2003 03:00 14.3 C 100 % 1016.3 hPa 0.0 l/m 0.2 km/h (0 Bft) SO 14.3 C 14.3 C
29.05.2003 04:00 14.0 C 100 % 1016.3 hPa 0.0 l/m 0.0 km/h (0 Bft) N 14.0 C 14.0 C
29.05.2003 05:00 13.1 C 100 % 1016.2 hPa 0.0 l/m 0.3 km/h (0 Bft) SO 13.1 C 13.1 C
29.05.2003 06:00 13.3 C 100 % 1016.3 hPa 0.0 l/m 0.0 km/h (0 Bft) N 13.3 C 13.3 C
29.05.2003 07:00 14.1 C 100 % 1016.3 hPa 0.0 l/m 0.4 km/h (0 Bft) SO 14.1 C 14.1 C
29.05.2003 08:00 15.5 C 98 % 1016.3 hPa 0.0 l/m 0.3 km/h (0 Bft) SO 15.1 C 15.5 C
29.05.2003 09:00 17.9 C 84 % 1016.3 hPa 0.0 l/m 1.9 km/h (1 Bft) O-SO 15.0 C 17.9 C
29.05.2003 10:00 19.4 C 74 % 1016.3 hPa 0.0 l/m 5.0 km/h (1 Bft) O 14.5 C 19.4 C
29.05.2003 11:00 21.1 C 65 % 1016.0 hPa 0.0 l/m 9.6 km/h (2 Bft) O-SO 14.2 C 21.1 C
29.05.2003 12:00 21.4 C 63 % 1015.3 hPa 0.0 l/m 7.8 km/h (2 Bft) O-SO 14.0 C 21.4 C
29.05.2003 13:00 23.2 C 58 % 1015.1 hPa 0.0 l/m 14.0 km/h (3 Bft) O-SO 14.5 C 23.2 C
29.05.2003 14:00 23.9 C 56 % 1014.2 hPa 0.0 l/m 15.8 km/h (3 Bft) O-SO 14.5 C 23.9 C
29.05.2003 15:00 24.9 C 53 % 1014.2 hPa 0.0 l/m 16.2 km/h (3 Bft) O-SO 14.6 C 24.9 C
29.05.2003 16:00 25.7 C 51 % 1013.6 hPa 0.0 l/m 14.1 km/h (3 Bft) O-SO 14.9 C 25.7 C
29.05.2003 17:00 25.1 C 49 % 1013.9 hPa 0.0 l/m 11.0 km/h (2 Bft) O-SO 13.6 C 25.1 C
29.05.2003 18:00 23.0 C 56 % 1013.9 hPa 0.0 l/m 11.8 km/h (2 Bft) O-SO 13.8 C 23.0 C
29.05.2003 19:00 22.4 C 62 % 1013.3 hPa 0.0 l/m 3.7 km/h (1 Bft) O-SO 14.6 C 22.4 C
29.05.2003 20:00 21.9 C 62 % 1014.2 hPa 0.0 l/m 2.3 km/h (1 Bft) SO 14.4 C 21.9 C
29.05.2003 21:00 19.7 C 71 % 1014.4 hPa 0.0 l/m 2.7 km/h (1 Bft) O-SO 14.4 C 19.7 C
29.05.2003 22:00 18.6 C 76 % 1015.2 hPa 0.0 l/m 8.0 km/h (2 Bft) O-SO 14.2 C 18.6 C
29.05.2003 23:00 17.1 C 81 % 1014.3 hPa 0.0 l/m 0.4 km/h (0 Bft) O-SO 13.8 C 17.1 C
30.05.2003 00:00 16.0 C 86 % 1014.3 hPa 0.0 l/m 2.4 km/h (1 Bft) O-SO 13.7 C 16.0 C
30.05.2003 01:00 15.1 C 91 % 1014.2 hPa 0.0 l/m 9.2 km/h (2 Bft) O-SO 13.6 C 15.1 C
30.05.2003 02:00 13.6 C 97 % 1014.2 hPa 0.0 l/m 2.8 km/h (1 Bft) O-SO 13.1 C 13.6 C
30.05.2003 03:00 12.9 C 99 % 1014.2 hPa 0.0 l/m 0.6 km/h (0 Bft) O-SO 12.8 C 12.9 C
30.05.2003 04:00 12.5 C 100 % 1014.2 hPa 0.0 l/m 3.0 km/h (1 Bft) O-SO 12.5 C 12.5 C
30.05.2003 05:00 11.7 C 100 % 1014.2 hPa 0.0 l/m 0.5 km/h (0 Bft) O-SO 11.7 C 11.7 C
30.05.2003 06:00 12.3 C 99 % 1014.8 hPa 0.0 l/m 5.2 km/h (1 Bft) O-SO 12.2 C 12.3 C
30.05.2003 07:00 13.9 C 96 % 1015.3 hPa 0.0 l/m 1.5 km/h (1 Bft) O-SO 13.2 C 13.9 C
30.05.2003 08:00 15.8 C 88 % 1015.3 hPa 0.0 l/m 4.6 km/h (1 Bft) O-SO 13.8 C 15.8 C
30.05.2003 09:00 17.8 C 77 % 1015.3 hPa 0.0 l/m 2.6 km/h (1 Bft) SO 13.6 C 17.8 C
30.05.2003 10:00 19.8 C 66 % 1015.3 hPa 0.0 l/m 5.4 km/h (1 Bft) SO 13.4 C 19.8 C
30.05.2003 11:00 22.0 C 59 % 1015.0 hPa 0.0 l/m 3.2 km/h (1 Bft) O-SO 13.7 C 22.0 C
30.05.2003 12:00 24.0 C 53 % 1014.2 hPa 0.0 l/m 1.9 km/h (1 Bft) SO 13.7 C 24.0 C
30.05.2003 13:00 25.8 C 44 % 1014.0 hPa 0.0 l/m 3.7 km/h (1 Bft) O-SO 12.7 C 25.8 C
30.05.2003 14:00 26.4 C 41 % 1013.2 hPa 0.0 l/m 1.0 km/h (0 Bft) W 12.0 C 26.4 C
30.05.2003 15:00 25.9 C 43 % 1013.2 hPa 0.0 l/m 0.4 km/h (0 Bft) N-NO 12.5 C 25.9 C
30.05.2003 16:00 26.8 C 43 % 1013.2 hPa 0.0 l/m 0.6 km/h (0 Bft) S-SW 13.2 C 26.8 C
30.05.2003 17:00 27.3 C 40 % 1012.5 hPa 0.0 l/m 2.4 km/h (1 Bft) O-SO 12.3 C 27.3 C
30.05.2003 18:00 24.9 C 50 % 1012.2 hPa 0.0 l/m 3.3 km/h (1 Bft) O-SO 13.7 C 24.9 C
30.05.2003 19:00 23.4 C 56 % 1012.8 hPa 0.0 l/m 1.1 km/h (1 Bft) SO 14.2 C 23.4 C
30.05.2003 20:00 22.7 C 62 % 1013.2 hPa 0.0 l/m 1.1 km/h (0 Bft) O-SO 15.0 C 22.7 C
30.05.2003 21:00 19.9 C 75 % 1013.5 hPa 0.0 l/m 1.4 km/h (1 Bft) O-SO 15.3 C 19.9 C
30.05.2003 22:00 18.3 C 82 % 1014.2 hPa 0.0 l/m 1.5 km/h (1 Bft) O-SO 15.3 C 18.3 C
30.05.2003 23:00 17.0 C 88 % 1013.7 hPa 0.0 l/m 0.9 km/h (0 Bft) O-SO 15.0 C 17.0 C
31.05.2003 00:00 16.0 C 93 % 1014.1 hPa 0.0 l/m 1.2 km/h (1 Bft) O-SO 14.9 C 16.0 C
31.05.2003 01:00 15.3 C 98 % 1013.9 hPa 0.0 l/m 3.8 km/h (1 Bft) O-SO 14.9 C 15.3 C
31.05.2003 02:00 14.4 C 99 % 1013.4 hPa 0.0 l/m 0.5 km/h (0 Bft) O-SO 14.2 C 14.4 C
31.05.2003 03:00 14.0 C 100 % 1013.5 hPa 0.0 l/m 0.5 km/h (0 Bft) O-SO 14.0 C 14.0 C
31.05.2003 04:00 13.3 C 100 % 1014.2 hPa 0.0 l/m 0.1 km/h (0 Bft) O-SO 13.3 C 13.3 C
31.05.2003 05:00 13.1 C 100 % 1014.2 hPa 0.0 l/m 0.0 km/h (0 Bft) N 13.0 C 13.1 C
31.05.2003 06:00 13.4 C 100 % 1014.2 hPa 0.0 l/m 0.5 km/h (0 Bft) O-SO 13.4 C 13.4 C
31.05.2003 07:00 14.7 C 99 % 1014.2 hPa 0.0 l/m 0.0 km/h (0 Bft) N 14.5 C 14.7 C
31.05.2003 08:00 16.4 C 90 % 1014.2 hPa 0.0 l/m 0.0 km/h (0 Bft) N 14.8 C 16.4 C
31.05.2003 09:00 19.0 C 76 % 1014.2 hPa 0.0 l/m 1.5 km/h (1 Bft) NO 14.7 C 19.0 C
31.05.2003 10:00 21.8 C 64 % 1014.2 hPa 0.0 l/m 1.5 km/h (1 Bft) SO 14.7 C 21.8 C
31.05.2003 11:00 24.3 C 56 % 1013.6 hPa 0.0 l/m 5.8 km/h (2 Bft) O-SO 15.0 C 24.3 C
31.05.2003 12:00 26.0 C 44 % 1013.2 hPa 0.0 l/m 11.5 km/h (2 Bft) NW 12.9 C 26.0 C
31.05.2003 13:00 27.2 C 37 % 1012.7 hPa 0.0 l/m 14.6 km/h (3 Bft) W-NW 11.3 C 27.2 C
31.05.2003 14:00 28.0 C 38 % 1012.2 hPa 0.0 l/m 15.6 km/h (3 Bft) W-NW 12.4 C 28.0 C
31.05.2003 15:00 28.0 C 38 % 1012.2 hPa 0.0 l/m 16.2 km/h (3 Bft) NW 12.1 C 28.0 C
31.05.2003 16:00 28.4 C 37 % 1011.9 hPa 0.0 l/m 19.7 km/h (3 Bft) NW 12.3 C 28.4 C
31.05.2003 17:00 27.9 C 36 % 1011.1 hPa 0.0 l/m 21.8 km/h (4 Bft) NW 11.5 C 27.9 C
31.05.2003 18:00 26.7 C 41 % 1011.6 hPa 0.0 l/m 13.0 km/h (3 Bft) W-NW 12.4 C 26.7 C
31.05.2003 19:00 26.7 C 45 % 1012.2 hPa 0.0 l/m 10.1 km/h (2 Bft) W-NW 13.7 C 26.7 C
31.05.2003 20:00 24.3 C 51 % 1012.2 hPa 0.0 l/m 6.1 km/h (2 Bft) W-NW 13.3 C 24.3 C
31.05.2003 21:00 22.9 C 55 % 1012.9 hPa 0.0 l/m 0.4 km/h (0 Bft) NW 13.2 C 22.9 C
31.05.2003 22:00 20.6 C 60 % 1013.4 hPa 0.0 l/m 17.8 km/h (3 Bft) O-SO 12.6 C 20.6 C
31.05.2003 23:00 18.9 C 67 % 1013.6 hPa 0.0 l/m 5.7 km/h (1 Bft) O-SO 12.5 C 18.9 C
01.06.2003 00:00 16.7 C 81 % 1014.1 hPa 0.0 l/m 2.3 km/h (1 Bft) O-SO 13.4 C 16.7 C
01.06.2003 01:00 15.5 C 86 % 1013.2 hPa 0.0 l/m 1.1 km/h (1 Bft) O-SO 13.1 C 15.5 C
01.06.2003 02:00 14.6 C 92 % 1013.2 hPa 0.0 l/m 1.9 km/h (1 Bft) O-SO 13.4 C 14.6 C
01.06.2003 03:00 14.0 C 96 % 1013.2 hPa 0.0 l/m 0.0 km/h (0 Bft) N 13.3 C 14.0 C
01.06.2003 04:00 13.5 C 98 % 1013.2 hPa 0.0 l/m 1.0 km/h (0 Bft) O-SO 13.2 C 13.5 C
01.06.2003 05:00 13.0 C 99 % 1013.2 hPa 0.0 l/m 0.1 km/h (0 Bft) N 12.9 C 13.0 C
01.06.2003 06:00 13.3 C 98 % 1013.2 hPa 0.0 l/m 0.0 km/h (0 Bft) N 13.0 C 13.3 C
01.06.2003 07:00 14.8 C 94 % 1013.2 hPa 0.0 l/m 0.0 km/h (0 Bft) N 13.8 C 14.8 C
01.06.2003 08:00 16.4 C 85 % 1013.3 hPa 0.0 l/m 1.0 km/h (0 Bft) W-NW 13.8 C 16.4 C
01.06.2003 09:00 18.5 C 74 % 1013.2 hPa 0.0 l/m 0.8 km/h (0 Bft) W-SW 13.8 C 18.5 C
01.06.2003 10:00 20.7 C 65 % 1012.8 hPa 0.0 l/m 1.4 km/h (1 Bft) W 13.9 C 20.7 C
01.06.2003 11:00 23.0 C 58 % 1012.2 hPa 0.0 l/m 2.0 km/h (1 Bft) W-NW 14.2 C 23.0 C
01.06.2003 12:00 25.2 C 51 % 1012.2 hPa 0.0 l/m 1.7 km/h (1 Bft) O-SO 14.1 C 25.2 C
01.06.2003 13:00 27.0 C 43 % 1011.7 hPa 0.0 l/m 4.6 km/h (1 Bft) O-SO 13.3 C 27.0 C
01.06.2003 14:00 28.3 C 37 % 1011.1 hPa 0.0 l/m 2.4 km/h (1 Bft) NW 12.2 C 28.3 C
01.06.2003 15:00 29.3 C 33 % 1010.3 hPa 0.0 l/m 0.9 km/h (0 Bft) W-NW 11.4 C 29.3 C
01.06.2003 16:00 29.6 C 33 % 1010.1 hPa 0.0 l/m 0.8 km/h (0 Bft) NW 11.7 C 29.6 C
01.06.2003 17:00 30.2 C 31 % 1009.4 hPa 0.0 l/m 3.5 km/h (1 Bft) O-SO 11.2 C 30.2 C
01.06.2003 18:00 28.7 C 37 % 1009.1 hPa 0.0 l/m 6.3 km/h (2 Bft) O-SO 12.4 C 28.7 C
01.06.2003 19:00 26.7 C 45 % 1009.1 hPa 0.0 l/m 0.1 km/h (0 Bft) N 13.6 C 26.7 C
01.06.2003 20:00 24.7 C 57 % 1009.1 hPa 0.0 l/m 0.0 km/h (0 Bft) N 15.6 C 24.7 C
01.06.2003 21:00 21.4 C 65 % 1009.6 hPa 0.0 l/m 0.0 km/h (0 Bft) N 14.6 C 21.4 C
01.06.2003 22:00 19.1 C 73 % 1010.1 hPa 0.0 l/m 0.0 km/h (0 Bft) N 14.2 C 19.1 C
01.06.2003 23:00 17.4 C 79 % 1010.2 hPa 0.0 l/m 0.0 km/h (0 Bft) N 13.7 C 17.4 C
Min-Datum _ 26.05.03 01.06.03 01.06.03 - 26.05.03 - 01.06.03 26.05.03
_ Min-Zeit 01:07 17:19 18:00 - 00:22 - 17:19 01:07
Minimum _ 10.4 C 26 % 1009.1 hPa - 0.0 km/h (0 Bft) - 8.5 C 10.4 C
Max-Datum _ 01.06.03 26.05.03 26.05.03 27.05.03 31.05.03 - 28.05.03 01.06.03
_ Max-Zeit 17:22 00:01 22:00 06:16 17:07 - 21:28 17:22
Maximum _ 30.5 C 100 % 1021.5 hPa 0.6 l/m 46.4 km/h
NW (6 Bft)
- 16.3 C 30.5 C
Durchschnitt _ 18.0 C 79 % 1016.1 hPa #2.7 l/m 3.0 km/h (1 Bft) O-SO 13.6 C 18.0 C

Durchschnitt Minimum Temp.17.2 C
Durchschnitt Maximum Temp.18.7 C
© Kaiko 2003